createdAt,value
2022-11-29T00:09:42.590Z,19.3
2022-11-29T00:40:03.794Z,19.9
2022-11-29T01:10:21.399Z,20.4
2022-11-29T01:40:38.098Z,20.4
2022-11-29T02:10:54.732Z,18.6
2022-11-29T02:41:12.101Z,16
2022-11-29T03:11:29.026Z,17.2
2022-11-29T03:41:45.804Z,16.3
2022-11-29T04:12:01.640Z,16.3
2022-11-29T04:42:20.659Z,16.1
2022-11-29T05:12:36.940Z,19.4
2022-11-29T05:42:53.799Z,16.1
2022-11-29T06:13:11.911Z,17
2022-11-29T06:43:28.373Z,15.7
2022-11-29T07:13:46.879Z,15.9
2022-11-29T07:44:08.978Z,17.5
2022-11-29T08:14:26.953Z,14.8
2022-11-29T08:44:46.617Z,15
2022-11-29T09:15:05.643Z,17.4
2022-11-29T09:45:24.524Z,16.2
2022-11-29T10:15:42.585Z,14
2022-11-29T10:46:17.648Z,13.8
2022-11-29T11:16:37.789Z,15
2022-11-29T11:46:57.633Z,14.9
2022-11-29T12:47:35.997Z,15.5
2022-11-29T13:17:55.179Z,14
2022-11-29T13:48:13.919Z,13
2022-11-29T14:18:30.741Z,12.2
2022-11-29T14:48:48.670Z,11.6
2022-11-29T15:19:04.374Z,13.9
2022-11-29T15:49:20.079Z,16.1
2022-11-29T16:19:36.593Z,10
2022-11-29T16:49:52.662Z,12
2022-11-29T17:20:08.964Z,13.3
2022-11-29T17:50:25.575Z,13.5
2022-11-29T18:20:43.297Z,15.9
2022-11-29T18:51:01.688Z,13.8
2022-11-29T19:21:18.579Z,14.1
2022-11-29T19:51:37.979Z,17.5
2022-11-29T20:21:56.109Z,14.5
2022-11-29T20:52:14.322Z,14.3
2022-11-29T21:22:29.989Z,14.7
2022-11-29T21:52:47.482Z,20.8
2022-11-29T22:23:04.507Z,18.7
2022-11-29T22:53:20.779Z,17.7
2022-11-29T23:23:39.072Z,19.8
2022-11-29T23:53:57.107Z,19.9
